Time;durP1;ratioP1;P1;durP2;ratioP2;P2;SDS_P1;SDS_P2;PMS_P1;PMS_P2;Temp;Humidity;BMP_temperature;BMP_pressure;BME280_temperature;BME280_humidity;BME280_pressure;Samples;Min_cycle;Max_cycle;Signal;HPM_P1;HPM_P2
2023/05/29 00:00:06;;;;;;;4.03;1.98;;;;;;;13.73;48.53;98000.56;10610925;27;20133;-70
2023/05/29 00:05:49;;;;;;;7.32;2.53;;;;;;;13.61;48.98;97988.63;10614326;27;20055;-70
2023/05/29 00:11:10;;;;;;;5.07;1.77;;;;;;;13.54;48.92;97997.28;10596115;27;20118;-70
2023/05/29 00:16:31;;;;;;;4.00;1.80;;;;;;;13.48;49.22;97991.31;10610136;27;20146;-70
2023/05/29 00:21:52;;;;;;;4.13;1.55;;;;;;;13.44;49.25;97994.63;10609726;27;20119;-70
2023/05/29 00:27:12;;;;;;;4.88;1.73;;;;;;;13.28;49.51;97985.94;10625191;27;20381;-70
2023/05/29 00:32:33;;;;;;;4.05;2.00;;;;;;;13.20;49.80;97998.72;10609508;27;20118;-70
2023/05/29 00:37:53;;;;;;;4.72;1.58;;;;;;;13.18;50.00;97986.03;10581139;27;20490;-70
2023/05/29 00:43:14;;;;;;;4.65;1.73;;;;;;;13.16;50.23;97988.00;10609301;27;20114;-70
2023/05/29 00:48:35;;;;;;;4.13;1.80;;;;;;;13.11;50.50;97986.25;10624499;27;20040;-70
2023/05/29 00:53:56;;;;;;;3.47;1.88;;;;;;;13.08;50.52;97988.22;10612776;27;20047;-70
2023/05/29 00:59:18;;;;;;;3.72;2.22;;;;;;;13.00;50.71;97976.50;10608905;27;20539;-70
2023/05/29 01:04:39;;;;;;;5.97;1.88;;;;;;;13.04;50.81;97978.84;10623040;27;20055;-70
2023/05/29 01:09:59;;;;;;;3.05;1.63;;;;;;;13.00;50.83;97973.69;10622984;27;20039;-70
2023/05/29 01:15:41;;;;;;;6.35;2.30;;;;;;;12.94;50.95;97978.94;10623069;27;20122;-70
2023/05/29 01:21:18;;;;;;;4.55;1.77;;;;;;;12.90;51.19;97979.41;10623175;27;20042;-70
2023/05/29 01:26:49;;;;;;;4.70;2.03;;;;;;;12.85;51.46;97982.59;10594731;27;20453;-70
2023/05/29 01:32:10;;;;;;;3.08;1.75;;;;;;;12.78;51.29;97978.66;10622588;27;20070;-70
2023/05/29 01:37:31;;;;;;;4.93;2.20;;;;;;;12.65;51.54;97978.50;10608447;27;20164;-70
2023/05/29 01:42:52;;;;;;;4.15;1.60;;;;;;;12.59;51.79;97981.66;10607972;27;20137;-70
2023/05/29 01:48:13;;;;;;;3.15;1.80;;;;;;;12.50;51.92;97972.00;10622521;27;20058;-70
2023/05/29 01:53:34;;;;;;;3.58;1.70;;;;;;;12.47;52.14;97973.22;10622311;27;20119;-70
2023/05/29 01:58:55;;;;;;;3.55;1.80;;;;;;;12.42;52.49;97962.34;10593709;27;20039;-70
2023/05/29 02:04:16;;;;;;;3.78;1.80;;;;;;;12.37;52.35;97960.66;10621421;27;20063;-70
2023/05/29 02:09:37;;;;;;;4.97;1.80;;;;;;;12.34;52.75;97965.38;10600357;27;20465;-70
2023/05/29 02:14:58;;;;;;;5.20;1.83;;;;;;;12.32;52.64;97951.97;10600760;27;20496;-70
2023/05/29 02:20:20;;;;;;;3.67;2.08;;;;;;;12.25;52.65;97946.59;10600667;27;20469;-70
2023/05/29 02:25:41;;;;;;;6.32;2.47;;;;;;;12.06;52.99;97949.53;10600317;27;20089;-70
2023/05/29 02:31:02;;;;;;;6.05;2.25;;;;;;;11.96;53.45;97949.63;10599958;27;20123;-70
2023/05/29 02:36:24;;;;;;;4.88;2.25;;;;;;;11.89;53.64;97945.69;10600182;27;20076;-70
2023/05/29 02:41:45;;;;;;;4.82;1.90;;;;;;;11.83;53.92;97947.38;10599417;27;20185;-70
2023/05/29 02:47:06;;;;;;;3.42;2.25;;;;;;;11.76;54.15;97941.34;10599666;27;20047;-70
2023/05/29 02:52:30;;;;;;;3.92;2.22;;;;;;;11.73;54.42;97942.53;10599412;27;20115;-71
2023/05/29 02:57:52;;;;;;;5.35;2.33;;;;;;;11.71;54.68;97953.59;10599562;27;20491;-70
2023/05/29 03:03:13;;;;;;;5.90;2.60;;;;;;;11.71;54.89;97947.28;10628283;27;20058;-70
2023/05/29 03:08:35;;;;;;;6.32;2.58;;;;;;;11.60;54.86;97951.47;10598604;27;20040;-70
2023/05/29 03:13:57;;;;;;;6.07;2.67;;;;;;;11.54;54.89;97947.53;10612626;27;20043;-70
2023/05/29 03:19:17;;;;;;;3.35;2.17;;;;;;;11.57;54.96;97949.84;10611893;27;20067;-70
2023/05/29 03:24:38;;;;;;;4.55;2.10;;;;;;;11.64;55.59;97959.38;10597751;27;20535;-70
2023/05/29 03:29:59;;;;;;;4.85;2.25;;;;;;;11.78;55.37;97968.00;10597857;27;20110;-70
2023/05/29 03:35:21;;;;;;;4.55;2.30;;;;;;;11.84;54.89;97954.41;10597462;27;20126;-70
2023/05/29 03:40:41;;;;;;;5.20;2.25;;;;;;;11.92;55.25;97974.53;10597250;27;20063;-70
2023/05/29 03:46:02;;;;;;;5.43;2.20;;;;;;;12.13;55.17;97971.72;10596888;27;20445;-70
2023/05/29 03:51:24;;;;;;;5.50;2.45;;;;;;;12.32;55.12;97968.75;10597174;27;20173;-70
2023/05/29 03:56:48;;;;;;;13.98;2.47;;;;;;;12.58;54.81;97974.59;10596953;27;20043;-70
2023/05/29 04:02:10;;;;;;;7.38;2.00;;;;;;;12.83;54.31;97980.38;10596337;27;20062;-70
2023/05/29 04:07:36;;;;;;;4.47;2.13;;;;;;;13.03;54.27;97983.72;10583153;27;20043;-70
2023/05/29 04:12:57;;;;;;;4.47;2.20;;;;;;;13.26;53.66;97980.22;10596201;27;20046;-70
2023/05/29 04:18:19;;;;;;;5.72;2.25;;;;;;;13.49;53.71;97998.38;10596124;27;20059;-70
2023/05/29 04:23:40;;;;;;;6.93;2.15;;;;;;;13.71;53.49;98005.34;10595498;27;20075;-70
2023/05/29 04:29:00;;;;;;;5.53;2.30;;;;;;;13.90;52.94;98005.06;10594914;27;20110;-70
2023/05/29 04:34:21;;;;;;;5.95;2.20;;;;;;;14.18;52.54;98020.00;10595355;27;20066;-70
2023/05/29 04:39:43;;;;;;;7.57;2.72;;;;;;;14.43;51.93;98033.38;10609552;27;20533;-70
2023/05/29 04:45:10;;;;;;;8.23;2.50;;;;;;;14.63;51.78;98025.38;10595674;27;20051;-70
2023/05/29 04:50:33;;;;;;;7.50;2.38;;;;;;;14.90;50.79;98033.19;10595329;27;20043;-70
2023/05/29 04:55:53;;;;;;;6.60;2.42;;;;;;;15.10;50.42;98042.75;10624617;28;20080;-71
2023/05/29 05:01:15;;;;;;;5.43;2.25;;;;;;;15.42;49.49;98043.75;10594945;28;20043;-70
2023/05/29 05:06:37;;;;;;;7.22;2.15;;;;;;;15.84;48.55;98038.22;10594464;28;20122;-70
2023/05/29 05:11:59;;;;;;;5.15;2.35;;;;;;;16.07;47.36;98040.06;10609447;28;20035;-71
2023/05/29 05:17:22;;;;;;;5.33;2.33;;;;;;;16.41;46.22;98041.06;10580929;28;20416;-70
2023/05/29 05:22:44;;;;;;;6.07;2.05;;;;;;;16.71;44.46;98050.31;10594473;28;20373;-70
2023/05/29 05:28:05;;;;;;;5.22;2.47;;;;;;;17.21;43.38;98049.16;10594384;28;20047;-70
2023/05/29 05:33:28;;;;;;;4.53;2.10;;;;;;;17.50;41.77;98047.63;10580639;28;20047;-71
2023/05/29 05:38:50;;;;;;;5.70;2.22;;;;;;;18.01;42.01;98050.63;10608140;28;20527;-71
2023/05/29 05:44:11;;;;;;;10.82;2.17;;;;;;;18.58;40.25;98059.38;10601692;27;20035;-71
2023/05/29 05:49:43;;;;;;;7.57;2.58;;;;;;;19.11;39.40;98070.03;10617236;27;20504;-72
2023/05/29 05:55:05;;;;;;;6.22;1.92;;;;;;;19.40;38.58;98080.34;10601451;27;20480;-71
2023/05/29 06:00:28;;;;;;;13.02;2.78;;;;;;;20.00;36.92;98083.25;10601411;27;20122;-71
2023/05/29 06:05:52;;;;;;;6.07;1.67;;;;;;;20.06;36.19;98077.78;10600924;27;20057;-71
2023/05/29 06:11:13;;;;;;;10.07;2.37;;;;;;;20.74;35.64;98078.00;10599390;27;20047;-71
2023/05/29 06:16:37;;;;;;;4.45;2.08;;;;;;;21.15;34.55;98075.09;10574377;27;20067;-70
2023/05/29 06:21:59;;;;;;;8.07;2.20;;;;;;;21.75;33.28;98079.72;10557673;28;20043;-70
2023/05/29 06:27:25;;;;;;;11.25;2.33;;;;;;;21.90;32.40;98073.75;10572467;27;20056;-70
2023/05/29 06:32:46;;;;;;;8.07;2.25;;;;;;;21.84;31.52;98089.94;10588855;27;20103;-70
2023/05/29 06:38:09;;;;;;;7.17;2.43;;;;;;;21.93;29.66;98092.34;10604835;27;20040;-70
2023/05/29 06:43:30;;;;;;;5.03;1.73;;;;;;;22.47;30.28;98100.19;10586096;28;20494;-69
2023/05/29 06:48:51;;;;;;;7.50;2.03;;;;;;;22.88;28.60;98106.97;10571225;28;20392;-69
2023/05/29 06:54:14;;;;;;;4.93;2.25;;;;;;;23.09;28.31;98098.25;10584768;27;20047;-70
2023/05/29 06:59:35;;;;;;;7.78;2.10;;;;;;;23.63;27.72;98106.59;10612822;27;20092;-70
2023/05/29 07:04:56;;;;;;;3.20;1.50;;;;;;;24.17;26.56;98114.13;10627930;27;20059;-71
2023/05/29 07:10:19;;;;;;;5.85;1.42;;;;;;;24.52;26.14;98112.69;10598169;27;20046;-71
2023/05/29 07:15:41;;;;;;;3.73;1.40;;;;;;;24.60;25.19;98107.09;10612293;27;20043;-71
2023/05/29 07:21:06;;;;;;;4.55;1.30;;;;;;;24.66;24.56;98109.34;10597876;27;20265;-72
2023/05/29 07:26:28;;;;;;;4.47;1.40;;;;;;;24.47;24.93;98117.56;10597394;27;20445;-72
2023/05/29 07:31:50;;;;;;;4.55;1.40;;;;;;;24.92;24.94;98114.81;10556260;28;20036;-72
2023/05/29 07:37:13;;;;;;;5.32;1.50;;;;;;;25.28;24.26;98120.38;10541265;28;20071;-75
2023/05/29 07:42:35;;;;;;;6.63;1.67;;;;;;;25.68;23.92;98117.41;10554941;28;20055;-71
2023/05/29 07:47:57;;;;;;;5.25;1.40;;;;;;;25.74;23.73;98120.38;10568358;28;20046;-79
2023/05/29 07:53:20;;;;;;;7.03;2.05;;;;;;;25.73;24.03;98130.34;10554507;28;20051;-71
2023/05/29 07:58:42;;;;;;;6.07;1.60;;;;;;;26.18;23.74;98128.06;10554116;28;20031;-71
2023/05/29 08:04:04;;;;;;;8.52;1.80;;;;;;;26.35;23.39;98129.72;10552447;28;20689;-73
2023/05/29 08:09:26;;;;;;;;;;;;;;;26.58;22.75;98130.69;10554255;28;20141;-71
2023/05/29 08:14:47;;;;;;;4.90;1.60;;;;;;;26.65;22.71;98137.19;10568952;27;19973;-71
2023/05/29 08:20:10;;;;;;;4.00;1.70;;;;;;;26.91;22.17;98143.16;10577303;28;20458;-71
2023/05/29 08:25:31;;;;;;;;;;;;;;;27.14;22.13;98141.25;10553762;28;20324;-72
2023/05/29 08:30:52;;;;;;;5.57;1.30;;;;;;;27.98;21.76;98133.91;10552970;28;19923;-71
2023/05/29 08:36:14;;;;;;;5.35;1.35;;;;;;;27.81;20.36;98138.16;10553036;28;20126;-71
2023/05/29 08:41:56;;;;;;;4.63;1.05;;;;;;;27.89;20.18;98138.16;10588233;27;20039;-72
2023/05/29 08:47:21;;;;;;;4.00;1.20;;;;;;;28.69;20.15;98131.31;10569676;27;20120;-71
2023/05/29 08:52:44;;;;;;;6.00;1.10;;;;;;;28.15;19.26;98134.69;10594966;28;20188;-71
2023/05/29 08:58:06;;;;;;;5.65;1.10;;;;;;;26.92;19.81;98132.41;10606859;28;20040;-72
2023/05/29 09:03:28;;;;;;;3.80;1.00;;;;;;;27.99;19.88;98140.38;10566099;28;20398;-71
2023/05/29 09:08:49;;;;;;;3.23;1.03;;;;;;;27.68;19.77;98131.59;10586316;28;20028;-71
2023/05/29 09:14:36;;;;;;;2.35;1.00;;;;;;;28.19;19.27;98137.59;10609441;27;20059;-72
2023/05/29 09:19:57;;;;;;;2.40;1.00;;;;;;;28.11;19.04;98135.41;10588934;27;20039;-71
2023/05/29 09:25:22;;;;;;;3.40;1.00;;;;;;;27.83;19.12;98133.13;10616628;27;20520;-71
2023/05/29 09:30:45;;;;;;;4.88;1.25;;;;;;;27.90;18.96;98136.75;10603350;27;20050;-72
2023/05/29 09:36:07;;;;;;;1.95;0.70;;;;;;;28.18;19.06;98139.00;10602121;27;20051;-71
2023/05/29 09:41:28;;;;;;;4.47;1.10;;;;;;;28.19;18.75;98143.34;10602264;27;20126;-71
2023/05/29 09:46:50;;;;;;;3.42;1.10;;;;;;;28.21;18.88;98144.06;10597934;27;20040;-71
2023/05/29 09:52:16;;;;;;;5.00;1.20;;;;;;;28.07;18.62;98137.53;10604734;27;20046;-71
2023/05/29 09:57:38;;;;;;;3.53;1.05;;;;;;;27.78;18.82;98136.69;10602156;27;20111;-72
2023/05/29 10:03:00;;;;;;;2.38;0.90;;;;;;;27.51;18.52;98136.50;10630355;27;20044;-73
2023/05/29 10:08:23;;;;;;;2.88;1.15;;;;;;;27.27;19.80;98130.59;10601201;27;20035;-71
2023/05/29 10:13:48;;;;;;;7.05;1.10;;;;;;;27.46;19.74;98134.31;10630243;27;20047;-71
2023/05/29 10:19:13;;;;;;;3.88;0.95;;;;;;;27.16;19.37;98134.81;10615440;27;20393;-71
2023/05/29 10:24:36;;;;;;;3.42;1.05;;;;;;;27.50;19.00;98128.59;10600781;27;20045;-71
2023/05/29 10:30:21;;;;;;;;;;;;;;;27.46;18.81;98123.56;10599563;27;20043;-72
2023/05/29 10:35:55;;;;;;;6.43;1.08;;;;;;;27.84;18.69;98131.69;10602653;27;19926;-72
2023/05/29 10:41:26;;;;;;;5.28;1.00;;;;;;;27.60;18.96;98115.06;10600004;27;20050;-71
2023/05/29 10:46:50;;;;;;;2.15;0.80;;;;;;;27.73;18.93;98120.88;10628571;27;20104;-71
2023/05/29 10:52:11;;;;;;;3.30;1.10;;;;;;;27.71;18.85;98112.28;10628785;27;20040;-71
2023/05/29 10:57:35;;;;;;;6.47;1.20;;;;;;;28.05;18.92;98103.09;10613257;27;20122;-71
2023/05/29 11:02:57;;;;;;;3.17;1.38;;;;;;;27.73;18.51;98113.00;10613168;27;20078;-71
2023/05/29 11:08:18;;;;;;;7.03;1.27;;;;;;;27.87;18.66;98095.13;10612849;27;20039;-72
2023/05/29 11:13:40;;;;;;;2.40;0.80;;;;;;;28.16;17.96;98096.69;10598379;27;20165;-72
2023/05/29 11:19:07;;;;;;;3.53;1.08;;;;;;;28.26;18.11;98090.25;10599321;27;20047;-75
2023/05/29 11:24:32;;;;;;;6.05;1.23;;;;;;;28.04;18.19;98099.50;10597807;27;20046;-73
2023/05/29 11:29:55;;;;;;;3.22;1.15;;;;;;;27.82;19.00;98093.69;10612449;27;20411;-75
2023/05/29 11:35:16;;;;;;;3.10;1.30;;;;;;;27.85;19.22;98109.47;10611825;27;20039;-70
2023/05/29 11:40:40;;;;;;;2.90;1.17;;;;;;;27.52;19.29;98097.81;10596996;27;20095;-72
2023/05/29 11:46:02;;;;;;;3.78;1.23;;;;;;;27.17;19.97;98104.72;10572840;27;20470;-71
2023/05/29 11:51:24;;;;;;;3.63;0.95;;;;;;;26.01;21.19;98101.41;10540298;28;20130;-70
2023/05/29 11:56:47;;;;;;;4.22;1.25;;;;;;;26.44;21.35;98094.06;10568322;28;20393;-70
2023/05/29 12:02:11;;;;;;;4.43;1.23;;;;;;;26.51;21.24;98098.41;10526692;28;20047;-71
2023/05/29 12:07:33;;;;;;;4.55;1.00;;;;;;;26.77;20.92;98082.91;10567991;28;20036;-70
2023/05/29 12:12:57;;;;;;;5.53;1.15;;;;;;;27.44;20.84;98089.16;10539597;28;20044;-70
2023/05/29 12:18:19;;;;;;;4.45;0.95;;;;;;;27.84;20.35;98090.81;10539661;28;20039;-70
2023/05/29 12:23:40;;;;;;;3.83;0.93;;;;;;;28.11;20.00;98066.56;10539413;28;20039;-70
2023/05/29 12:29:04;;;;;;;2.80;1.10;;;;;;;27.70;19.50;98076.41;10566967;28;20047;-71
2023/05/29 12:34:25;;;;;;;4.20;1.08;;;;;;;27.30;19.80;98075.44;10553334;28;20490;-70
2023/05/29 12:40:07;;;;;;;;;;;;;;;27.39;20.49;98068.34;10553040;28;20089;-70
2023/05/29 12:45:30;;;;;;;2.42;1.17;;;;;;;27.33;20.22;98061.88;10572098;27;19923;-71
2023/05/29 12:50:52;;;;;;;4.22;1.02;;;;;;;27.30;20.61;98061.13;10594060;27;20035;-70
2023/05/29 12:56:13;;;;;;;3.08;1.20;;;;;;;27.27;20.83;98053.22;10594376;28;20520;-70
2023/05/29 13:01:34;;;;;;;6.68;1.40;;;;;;;27.47;20.69;98061.22;10580325;28;20405;-71
2023/05/29 13:06:55;;;;;;;4.60;1.00;;;;;;;27.47;21.08;98049.75;10593798;28;20122;-70
2023/05/29 13:12:16;;;;;;;4.43;1.20;;;;;;;27.30;21.01;98060.41;10594129;28;20039;-71
2023/05/29 13:17:40;;;;;;;4.72;0.90;;;;;;;27.40;21.15;98046.13;10594291;28;20043;-71
2023/05/29 13:23:01;;;;;;;4.47;1.63;;;;;;;27.06;20.82;98038.78;10607537;28;20046;-71
2023/05/29 13:28:23;;;;;;;5.55;1.40;;;;;;;26.45;21.36;98034.69;10579792;28;20035;-70
2023/05/29 13:33:45;;;;;;;2.08;1.33;;;;;;;26.19;22.11;98029.38;10607848;28;20047;-70
2023/05/29 13:39:06;;;;;;;4.50;1.20;;;;;;;26.14;21.89;98022.88;10607563;28;20047;-71
2023/05/29 13:44:27;;;;;;;2.20;1.10;;;;;;;26.45;22.03;98020.38;10593311;28;20373;-71
2023/05/29 13:49:48;;;;;;;5.78;1.05;;;;;;;26.66;21.46;98001.22;10547408;28;20404;-71
2023/05/29 13:55:09;;;;;;;2.60;1.15;;;;;;;26.42;21.87;98002.44;10593157;28;20043;-70
2023/05/29 14:00:31;;;;;;;5.68;1.10;;;;;;;25.90;22.27;98006.19;10593864;27;20067;-72
2023/05/29 14:05:52;;;;;;;4.73;1.27;;;;;;;25.87;23.06;97999.03;10600491;27;20047;-71
2023/05/29 14:11:14;;;;;;;2.97;1.00;;;;;;;25.88;22.83;97994.03;10614959;27;20119;-71
2023/05/29 14:16:35;;;;;;;3.47;0.90;;;;;;;26.18;23.07;97994.34;10600352;27;20054;-70
2023/05/29 14:21:56;;;;;;;6.97;1.08;;;;;;;26.36;22.64;97993.06;10614292;27;20074;-71
2023/05/29 14:27:18;;;;;;;2.78;0.90;;;;;;;26.21;22.75;97986.50;10614275;27;20039;-72
2023/05/29 14:32:41;;;;;;;2.97;0.90;;;;;;;26.09;22.79;97992.81;10600048;27;20035;-71
2023/05/29 14:38:03;;;;;;;;;;;;;;;25.93;22.90;97998.38;10613711;27;20047;-71
2023/05/29 14:43:24;;;;;;;2.80;1.00;;;;;;;25.86;23.08;97977.56;10613597;27;19926;-70
2023/05/29 14:48:47;;;;;;;2.75;1.15;;;;;;;26.25;23.02;97980.81;10613114;27;20092;-71
2023/05/29 14:54:09;;;;;;;4.03;0.88;;;;;;;25.95;23.08;97976.22;10628486;27;20047;-71
2023/05/29 14:59:30;;;;;;;4.90;1.20;;;;;;;26.03;23.13;97977.72;10599150;27;20084;-71
2023/05/29 15:04:51;;;;;;;3.63;1.10;;;;;;;25.97;23.59;97981.25;10627732;27;20104;-71
2023/05/29 15:10:12;;;;;;;2.65;0.82;;;;;;;25.77;23.40;97976.03;10612113;27;20043;-71
2023/05/29 15:15:33;;;;;;;4.60;1.00;;;;;;;25.76;23.97;97977.44;10611594;27;20074;-71
2023/05/29 15:21:07;;;;;;;4.32;0.88;;;;;;;25.67;23.56;97973.78;10601867;27;20043;-71
2023/05/29 15:26:28;;;;;;;4.38;1.13;;;;;;;25.49;23.84;97970.69;10597612;27;20043;-70
2023/05/29 15:31:49;;;;;;;3.65;1.25;;;;;;;25.32;23.73;97980.47;10583154;27;20043;-71
2023/05/29 15:37:10;;;;;;;4.03;1.25;;;;;;;25.15;23.64;97984.53;10611720;27;20047;-71
2023/05/29 15:42:31;;;;;;;4.28;1.10;;;;;;;24.90;24.02;97977.69;10611135;27;20049;-71
2023/05/29 15:47:53;;;;;;;5.90;1.10;;;;;;;24.62;24.17;97978.03;10570220;27;20058;-71
2023/05/29 15:53:14;;;;;;;4.70;1.20;;;;;;;24.55;24.17;97980.03;10553829;28;20046;-70
2023/05/29 15:58:36;;;;;;;4.10;0.90;;;;;;;24.47;24.49;97974.19;10553873;28;20128;-70
2023/05/29 16:03:57;;;;;;;4.00;1.40;;;;;;;24.48;24.60;97981.34;10554039;28;20051;-70
2023/05/29 16:09:18;;;;;;;3.35;1.17;;;;;;;24.45;24.77;97979.88;10557965;27;20081;-75
2023/05/29 16:14:40;;;;;;;5.10;1.10;;;;;;;24.58;24.43;97983.66;10609880;27;20059;-75
2023/05/29 16:20:01;;;;;;;4.15;1.42;;;;;;;24.55;24.50;97985.75;10581628;27;20043;-71
2023/05/29 16:25:22;;;;;;;3.20;1.40;;;;;;;24.22;24.43;97990.16;10594422;27;20088;-71
2023/05/29 16:30:43;;;;;;;4.68;1.00;;;;;;;24.20;24.35;97987.97;10595110;27;20043;-76
2023/05/29 16:36:04;;;;;;;3.20;1.30;;;;;;;24.14;24.52;97985.03;10595149;27;20043;-76
2023/05/29 16:41:25;;;;;;;3.00;1.30;;;;;;;24.07;24.96;97977.78;10595263;27;20074;-84
2023/05/29 16:46:47;;;;;;;5.03;1.30;;;;;;;24.13;24.84;97983.59;10577967;27;20062;-88
2023/05/29 16:52:09;;;;;;;4.82;1.42;;;;;;;23.88;24.88;97981.69;10555202;28;20043;-73
2023/05/29 16:57:30;;;;;;;3.03;1.47;;;;;;;23.73;25.32;97985.69;10552330;28;20077;-75
2023/05/29 17:02:51;;;;;;;3.30;1.10;;;;;;;23.65;25.59;97983.41;10566450;28;20498;-78
2023/05/29 17:08:12;;;;;;;3.13;1.30;;;;;;;23.55;26.03;97986.03;10565695;28;20035;-75
2023/05/29 17:13:34;;;;;;;5.15;1.45;;;;;;;23.23;26.33;97983.22;10552125;28;20050;-72
2023/05/29 17:18:55;;;;;;;4.32;1.77;;;;;;;23.06;26.96;97985.69;10537869;28;20389;-72
2023/05/29 17:24:16;;;;;;;3.58;1.40;;;;;;;22.77;27.31;97995.69;10551629;28;20512;-73
2023/05/29 17:29:37;;;;;;;3.08;1.38;;;;;;;22.64;27.80;97981.88;10566091;28;20046;-72
2023/05/29 17:34:58;;;;;;;5.97;1.70;;;;;;;22.48;27.84;97976.50;10551652;28;20046;-71
2023/05/29 17:40:21;;;;;;;4.83;1.50;;;;;;;22.32;28.34;97982.53;10546333;28;20043;-72
2023/05/29 17:45:42;;;;;;;2.40;1.50;;;;;;;22.19;28.37;97989.28;10559636;28;20055;-72
2023/05/29 17:51:03;;;;;;;5.20;1.58;;;;;;;22.13;28.75;98000.50;10557259;28;20043;-72
2023/05/29 17:56:24;;;;;;;6.10;1.60;;;;;;;22.06;28.92;97993.19;10558902;28;20058;-72
2023/05/29 18:01:45;;;;;;;5.32;1.80;;;;;;;21.89;29.35;98001.28;10556894;28;20051;-72
2023/05/29 18:07:07;;;;;;;5.32;1.40;;;;;;;21.76;29.56;97995.94;10568870;28;20406;-71
2023/05/29 18:12:28;;;;;;;4.43;1.90;;;;;;;21.64;29.81;98002.72;10555972;28;20424;-71
2023/05/29 18:18:06;;;;;;;3.90;1.42;;;;;;;21.44;30.13;98013.53;10534528;28;20085;-71
2023/05/29 18:23:50;;;;;;;7.00;1.80;;;;;;;21.30;30.40;98001.72;10550522;28;20060;-71
2023/05/29 18:29:10;;;;;;;2.63;1.65;;;;;;;21.13;30.96;98018.28;10558968;28;20040;-71
2023/05/29 18:34:31;;;;;;;3.75;1.90;;;;;;;20.94;31.08;98010.59;10557929;28;20044;-72
2023/05/29 18:39:53;;;;;;;3.22;1.88;;;;;;;20.77;30.93;98022.81;10557509;28;20393;-72
2023/05/29 18:45:13;;;;;;;3.28;1.60;;;;;;;20.57;31.85;98022.88;10543399;28;20085;-72
2023/05/29 18:50:34;;;;;;;8.25;2.17;;;;;;;20.36;32.02;98034.88;10556054;28;20039;-72
2023/05/29 18:55:55;;;;;;;5.03;1.85;;;;;;;20.15;32.27;98034.19;10571320;28;20097;-71
2023/05/29 19:01:16;;;;;;;4.78;2.17;;;;;;;19.97;32.75;98044.88;10542960;28;20401;-71
2023/05/29 19:06:54;;;;;;;3.30;2.10;;;;;;;19.80;33.41;98051.38;10560562;28;20055;-71
2023/05/29 19:12:15;;;;;;;6.45;3.08;;;;;;;19.52;33.87;98060.25;10542929;28;20089;-71
2023/05/29 19:17:36;;;;;;;6.15;2.55;;;;;;;19.33;34.46;98060.94;10570161;28;20077;-71
2023/05/29 19:22:57;;;;;;;6.32;2.20;;;;;;;19.15;35.02;98056.03;10527783;27;20100;-71
2023/05/29 19:28:18;;;;;;;6.05;2.75;;;;;;;19.02;36.31;98068.25;10569409;28;20031;-71
2023/05/29 19:33:39;;;;;;;5.63;2.38;;;;;;;18.90;35.87;98073.41;10555269;28;20147;-71
2023/05/29 19:39:00;;;;;;;5.95;2.60;;;;;;;18.77;36.12;98074.31;10541033;28;20039;-71
2023/05/29 19:44:22;;;;;;;7.28;2.13;;;;;;;18.70;36.22;98083.91;10541260;28;20039;-71
2023/05/29 19:49:45;;;;;;;9.23;2.40;;;;;;;18.59;36.70;98103.25;10541866;28;20056;-71
2023/05/29 19:55:06;;;;;;;6.43;2.33;;;;;;;18.45;36.97;98104.75;10540267;28;20039;-71
2023/05/29 20:00:27;;;;;;;4.93;2.10;;;;;;;18.38;37.27;98112.25;10554194;28;20043;-71
2023/05/29 20:05:49;;;;;;;5.68;2.47;;;;;;;18.25;37.54;98118.75;10553890;28;20079;-71
2023/05/29 20:11:10;;;;;;;3.78;2.08;;;;;;;18.14;38.11;98122.47;10540366;28;20442;-71
2023/05/29 20:16:31;;;;;;;7.78;3.40;;;;;;;17.97;38.41;98127.44;10539951;28;20043;-71
2023/05/29 20:21:51;;;;;;;6.28;3.08;;;;;;;17.87;38.58;98135.44;10556073;27;20035;-71
2023/05/29 20:27:12;;;;;;;5.97;2.35;;;;;;;17.84;39.11;98141.63;10580644;27;20038;-71
2023/05/29 20:32:33;;;;;;;5.97;2.50;;;;;;;17.74;39.45;98139.81;10594083;27;20035;-70
2023/05/29 20:37:55;;;;;;;9.02;2.58;;;;;;;17.67;39.70;98134.50;10595899;27;20053;-70
2023/05/29 20:43:21;;;;;;;6.00;2.40;;;;;;;17.62;39.83;98132.84;10592904;27;20122;-70
2023/05/29 20:48:45;;;;;;;8.02;2.85;;;;;;;17.52;40.52;98143.66;10610006;27;20086;-70
2023/05/29 20:54:06;;;;;;;7.53;2.37;;;;;;;17.50;40.40;98132.28;10595442;27;20048;-71
2023/05/29 20:59:29;;;;;;;6.10;2.58;;;;;;;17.37;40.68;98134.56;10609078;28;20271;-71
2023/05/29 21:04:50;;;;;;;5.32;2.35;;;;;;;17.27;40.97;98136.88;10624462;28;20055;-70
2023/05/29 21:10:11;;;;;;;5.32;2.35;;;;;;;17.24;41.23;98140.97;10594909;27;20528;-70
2023/05/29 21:15:31;;;;;;;6.63;2.63;;;;;;;17.15;41.19;98134.19;10603181;27;20385;-71
2023/05/29 21:20:52;;;;;;;5.50;2.35;;;;;;;17.16;41.54;98149.03;10617529;27;20067;-70
2023/05/29 21:26:13;;;;;;;5.50;2.30;;;;;;;17.10;41.49;98148.75;10617001;27;20044;-71
2023/05/29 21:31:34;;;;;;;3.97;2.40;;;;;;;17.04;41.79;98140.72;10602749;27;20512;-71
2023/05/29 21:36:55;;;;;;;4.82;2.67;;;;;;;16.88;42.22;98143.47;10616828;27;20078;-70
2023/05/29 21:42:16;;;;;;;4.80;2.55;;;;;;;16.80;42.36;98150.81;10602384;27;20067;-70
2023/05/29 21:47:37;;;;;;;6.60;2.30;;;;;;;16.75;42.73;98146.34;10601809;27;20070;-70
2023/05/29 21:52:58;;;;;;;5.97;2.60;;;;;;;16.74;42.81;98142.78;10616176;27;20118;-70
2023/05/29 21:58:21;;;;;;;5.78;2.60;;;;;;;16.67;43.18;98138.16;10587527;27;20062;-70
2023/05/29 22:03:42;;;;;;;8.05;2.60;;;;;;;16.62;43.35;98142.16;10616265;27;20043;-70
2023/05/29 22:09:04;;;;;;;6.53;2.85;;;;;;;16.58;43.42;98153.22;10615625;27;20137;-70
2023/05/29 22:14:24;;;;;;;5.50;2.42;;;;;;;16.55;43.56;98162.94;10600992;27;20118;-70
2023/05/29 22:19:45;;;;;;;4.40;2.35;;;;;;;16.49;43.90;98157.69;10630598;27;20396;-70
2023/05/29 22:25:06;;;;;;;8.10;2.22;;;;;;;16.44;43.78;98149.69;10584901;27;20047;-70
2023/05/29 22:30:27;;;;;;;8.95;2.65;;;;;;;16.37;44.16;98159.91;10614884;27;20540;-70
2023/05/29 22:35:48;;;;;;;5.63;2.80;;;;;;;16.38;44.28;98163.44;10600064;27;20088;-70
2023/05/29 22:41:09;;;;;;;5.50;2.38;;;;;;;16.28;44.30;98158.75;10614475;27;20111;-73
2023/05/29 22:46:30;;;;;;;5.68;2.38;;;;;;;16.27;44.41;98150.94;10585829;27;20118;-70
2023/05/29 22:51:51;;;;;;;4.15;2.05;;;;;;;16.22;44.21;98147.19;10599712;27;20449;-70
2023/05/29 22:57:12;;;;;;;4.85;2.47;;;;;;;16.23;44.68;98159.19;10599827;27;20104;-70
2023/05/29 23:02:33;;;;;;;4.32;2.55;;;;;;;16.19;44.68;98151.25;10584811;27;20093;-70
2023/05/29 23:07:54;;;;;;;7.70;2.85;;;;;;;16.19;44.68;98154.06;10628625;27;20046;-70
2023/05/29 23:13:15;;;;;;;5.32;2.50;;;;;;;16.14;44.70;98154.47;10584770;27;20047;-70
2023/05/29 23:18:36;;;;;;;6.15;2.50;;;;;;;16.10;45.08;98163.44;10598475;27;20044;-70
2023/05/29 23:23:57;;;;;;;7.00;2.60;;;;;;;16.04;45.01;98165.94;10612859;27;20470;-70
2023/05/29 23:29:18;;;;;;;8.93;2.70;;;;;;;16.06;45.18;98160.41;10598168;27;20488;-70
2023/05/29 23:34:39;;;;;;;6.25;2.60;;;;;;;16.06;45.27;98151.25;10612001;27;20035;-70
2023/05/29 23:40:00;;;;;;;4.88;2.40;;;;;;;16.05;45.16;98156.16;10597681;27;20039;-70
2023/05/29 23:45:20;;;;;;;8.60;2.50;;;;;;;16.09;45.40;98156.34;10627025;27;20120;-70
2023/05/29 23:50:42;;;;;;;7.70;2.58;;;;;;;16.04;45.32;98160.31;10597230;27;20523;-70
2023/05/29 23:56:03;;;;;;;5.40;2.85;;;;;;;16.04;45.55;98160.31;10597466;27;20500;-70
